KFUL/FUL METAR and TAF weather

Enter ICAO airport designator
Station Type Date Time Source
KFUL METAR 2019/04/18 13:53 UTC NOAA

KFUL 181353Z 00000KT 10SM CLR 14/09 A3009 RMK AO2 SLP189 T01390094


Station Type Date Time Source
KFUL Decoded METAR 2019/04/18 13:53 UTC NOAA

FULLERTON MUNICIPAL AIRPORT , CA, United States (KFUL) 33-52N 117-59W 35M
Apr 18, 2019 - 09:53 AM EDT / 2019.04.18 1353 UTC
Wind: Calm:0
Visibility: 10 mile(s):0
Sky conditions: clear
Temperature: 57.0 F (13.9 C)
Dew Point: 48.9 F (9.4 C)
Relative Humidity: 74%
Pressure (altimeter): 30.09 in. Hg (1018 hPa)
ob: KFUL 181353Z 00000KT 10SM CLR 14/09 A3009 RMK AO2 SLP189 T01390094
cycle: 14

Station Type Date Time Source
KFUL TAF UTC NOAA

Error!

Example: see airport list